aviador You're here:

KHSE Decoded Metar

HATTERAS/MITCHEL in NC, USA
Report Time2017-09-24 00:51:00
UTC Time2017-09-24 01:21:03
Flight Rules vfr VFR
Wind050° at 06 kt
W.Decomp.*RWY 07: 5.9 kt HW 1 kt LCW
W.Rank050° ranks 7
Current wind is below 050° avg. (6.6)
Visibility9999 m
Phenomena:N/A
Clouds:N/A
Expected CloudBase > 1,200 ft AGL from Temp-Dew spread
CeilingNone
Temp23°C (ISA +8)
Dew Point20°C (83% RH)
QNH1017 hPa
Density Alt1,115 ft
Elevation10 ft
Report Wrong Elevation
Raw Report
METAR KHSE 240051Z AUTO 05006KT 10SM CLR 23/20 A3004 RMK AO2 SLP172
T02280200 TSNO=

Extra information for KHSE:More info

Metar Taf Metar & Taf Last 4 Metars F.Rules Stats Wind Profile Meteogram Temp Stats Airport Information Weather charts Add Link Nearby VenuesMetar ALERT Operation Metar Decoded Social comments

AIRNAV info for KHSE